Woodbury, Tennessee
Current Conditions -  °F | °C
As of 4:53 PM on Friday 28 Nov 2014 (Local Time) from KBNA Reporting Station
Few Clouds Few Clouds  
Wind Chill: 38°   Ceiling: Unl
Heat Index: 42°   Visibility: 10mi
Dew Point: 22°   Wind: 7mph
Humidity: 45%   Direction: 160°SSE
Pressure: 30.22"   Gusts: NA
Location:  35.83°N, 86.07°W
Report Text: KBNA 282253Z 16006KT 10SM FEW250 06/M06 A3022 RMK AO2 SLP238 T00561056
Loading
Personal Weather Stations






























Interactive Weather Map New forecast layout! Learn more

10-Day Weather Forecast

Advertisements
Track Severe Weather on mobile